sensor_id;sensor_type;location;lat;lon;timestamp;temperature;humidity
40257;DHT22;25977;45.462;9.210;2024-02-14T00:01:53;11.80;92.10
40257;DHT22;25977;45.462;9.210;2024-02-14T00:04:18;11.80;92.10
40257;DHT22;25977;45.462;9.210;2024-02-14T00:06:44;11.80;91.80
40257;DHT22;25977;45.462;9.210;2024-02-14T00:09:10;11.70;91.80
40257;DHT22;25977;45.462;9.210;2024-02-14T00:11:37;11.70;91.90
40257;DHT22;25977;45.462;9.210;2024-02-14T00:14:03;11.70;92.00
40257;DHT22;25977;45.462;9.210;2024-02-14T00:16:29;11.70;92.00
40257;DHT22;25977;45.462;9.210;2024-02-14T00:18:58;11.70;92.10
40257;DHT22;25977;45.462;9.210;2024-02-14T00:21:24;11.70;92.00
40257;DHT22;25977;45.462;9.210;2024-02-14T00:23:51;11.70;92.00
40257;DHT22;25977;45.462;9.210;2024-02-14T00:26:16;11.60;91.90
40257;DHT22;25977;45.462;9.210;2024-02-14T00:28:42;11.60;91.90
40257;DHT22;25977;45.462;9.210;2024-02-14T00:31:08;11.60;91.90
40257;DHT22;25977;45.462;9.210;2024-02-14T00:33:33;11.50;91.70
40257;DHT22;25977;45.462;9.210;2024-02-14T00:35:59;11.40;91.70
40257;DHT22;25977;45.462;9.210;2024-02-14T00:38:24;11.40;91.80
40257;DHT22;25977;45.462;9.210;2024-02-14T00:40:50;11.30;91.80
40257;DHT22;25977;45.462;9.210;2024-02-14T00:43:16;11.40;91.80
40257;DHT22;25977;45.462;9.210;2024-02-14T00:45:42;11.40;91.80
40257;DHT22;25977;45.462;9.210;2024-02-14T00:48:07;11.40;91.70
40257;DHT22;25977;45.462;9.210;2024-02-14T00:50:33;11.40;91.40
40257;DHT22;25977;45.462;9.210;2024-02-14T00:52:59;11.40;91.40
40257;DHT22;25977;45.462;9.210;2024-02-14T00:55:25;11.40;91.40
40257;DHT22;25977;45.462;9.210;2024-02-14T00:57:51;11.40;91.40
40257;DHT22;25977;45.462;9.210;2024-02-14T01:00:17;11.40;91.20
40257;DHT22;25977;45.462;9.210;2024-02-14T01:02:44;11.40;91.40
40257;DHT22;25977;45.462;9.210;2024-02-14T01:05:10;11.40;91.50
40257;DHT22;25977;45.462;9.210;2024-02-14T01:07:36;11.50;91.40
40257;DHT22;25977;45.462;9.210;2024-02-14T01:10:02;11.40;91.00
40257;DHT22;25977;45.462;9.210;2024-02-14T01:12:28;11.40;91.20
40257;DHT22;25977;45.462;9.210;2024-02-14T01:14:57;11.50;91.00
40257;DHT22;25977;45.462;9.210;2024-02-14T01:17:23;11.40;91.00
40257;DHT22;25977;45.462;9.210;2024-02-14T01:19:50;11.40;91.00
40257;DHT22;25977;45.462;9.210;2024-02-14T01:22:16;11.40;91.00
40257;DHT22;25977;45.462;9.210;2024-02-14T01:24:42;11.40;91.10
40257;DHT22;25977;45.462;9.210;2024-02-14T01:27:08;11.40;90.90
40257;DHT22;25977;45.462;9.210;2024-02-14T01:29:34;11.30;90.70
40257;DHT22;25977;45.462;9.210;2024-02-14T01:32:00;11.40;90.70
40257;DHT22;25977;45.462;9.210;2024-02-14T01:34:26;11.40;90.60
40257;DHT22;25977;45.462;9.210;2024-02-14T01:36:53;11.40;90.60
40257;DHT22;25977;45.462;9.210;2024-02-14T01:39:20;11.40;90.70
40257;DHT22;25977;45.462;9.210;2024-02-14T01:41:48;11.40;90.60
40257;DHT22;25977;45.462;9.210;2024-02-14T01:44:15;11.30;90.40
40257;DHT22;25977;45.462;9.210;2024-02-14T01:46:42;11.40;90.60
40257;DHT22;25977;45.462;9.210;2024-02-14T01:49:09;11.40;90.50
40257;DHT22;25977;45.462;9.210;2024-02-14T01:51:38;11.40;90.40
40257;DHT22;25977;45.462;9.210;2024-02-14T01:54:05;11.40;90.40
40257;DHT22;25977;45.462;9.210;2024-02-14T01:56:31;11.40;90.30
40257;DHT22;25977;45.462;9.210;2024-02-14T01:58:59;11.40;90.30
40257;DHT22;25977;45.462;9.210;2024-02-14T02:01:26;11.40;90.30
40257;DHT22;25977;45.462;9.210;2024-02-14T02:03:53;11.40;90.40
40257;DHT22;25977;45.462;9.210;2024-02-14T02:06:19;11.30;90.40
40257;DHT22;25977;45.462;9.210;2024-02-14T02:08:45;11.40;90.30
40257;DHT22;25977;45.462;9.210;2024-02-14T02:11:11;11.40;90.30
40257;DHT22;25977;45.462;9.210;2024-02-14T02:13:37;11.30;90.10
40257;DHT22;25977;45.462;9.210;2024-02-14T02:16:05;11.30;90.30
40257;DHT22;25977;45.462;9.210;2024-02-14T02:18:34;11.30;90.40
40257;DHT22;25977;45.462;9.210;2024-02-14T02:21:00;11.30;90.20
40257;DHT22;25977;45.462;9.210;2024-02-14T02:23:34;11.30;90.30
40257;DHT22;25977;45.462;9.210;2024-02-14T02:25:59;11.30;90.50
40257;DHT22;25977;45.462;9.210;2024-02-14T02:28:25;11.30;90.60
40257;DHT22;25977;45.462;9.210;2024-02-14T02:30:51;11.30;90.30
40257;DHT22;25977;45.462;9.210;2024-02-14T02:33:18;11.20;90.20
40257;DHT22;25977;45.462;9.210;2024-02-14T02:35:43;11.20;90.30
40257;DHT22;25977;45.462;9.210;2024-02-14T02:38:11;11.20;90.30
40257;DHT22;25977;45.462;9.210;2024-02-14T02:40:37;11.20;90.50
40257;DHT22;25977;45.462;9.210;2024-02-14T02:43:03;11.20;90.60
40257;DHT22;25977;45.462;9.210;2024-02-14T02:45:29;11.20;90.60
40257;DHT22;25977;45.462;9.210;2024-02-14T02:47:55;11.20;90.70
40257;DHT22;25977;45.462;9.210;2024-02-14T02:50:21;11.10;90.70
40257;DHT22;25977;45.462;9.210;2024-02-14T02:52:48;11.10;90.80
40257;DHT22;25977;45.462;9.210;2024-02-14T02:55:13;11.10;90.90
40257;DHT22;25977;45.462;9.210;2024-02-14T02:57:43;11.10;90.90
40257;DHT22;25977;45.462;9.210;2024-02-14T03:00:09;11.10;91.10
40257;DHT22;25977;45.462;9.210;2024-02-14T03:02:37;11.10;91.00
40257;DHT22;25977;45.462;9.210;2024-02-14T03:05:08;11.10;90.90
40257;DHT22;25977;45.462;9.210;2024-02-14T03:07:36;11.10;90.90
40257;DHT22;25977;45.462;9.210;2024-02-14T03:10:02;11.10;90.80
40257;DHT22;25977;45.462;9.210;2024-02-14T03:12:29;11.10;90.90
40257;DHT22;25977;45.462;9.210;2024-02-14T03:14:57;11.10;91.00
40257;DHT22;25977;45.462;9.210;2024-02-14T03:17:23;11.10;91.00
40257;DHT22;25977;45.462;9.210;2024-02-14T03:19:49;11.20;90.90
40257;DHT22;25977;45.462;9.210;2024-02-14T03:22:17;11.10;90.70
40257;DHT22;25977;45.462;9.210;2024-02-14T03:24:44;11.20;90.80
40257;DHT22;25977;45.462;9.210;2024-02-14T03:27:12;11.20;90.40
40257;DHT22;25977;45.462;9.210;2024-02-14T03:29:38;11.10;90.50
40257;DHT22;25977;45.462;9.210;2024-02-14T03:32:05;11.20;90.60
40257;DHT22;25977;45.462;9.210;2024-02-14T03:34:32;11.20;91.00
40257;DHT22;25977;45.462;9.210;2024-02-14T03:37:02;11.20;91.00
40257;DHT22;25977;45.462;9.210;2024-02-14T03:39:30;11.20;91.10
40257;DHT22;25977;45.462;9.210;2024-02-14T03:41:56;11.20;91.00
40257;DHT22;25977;45.462;9.210;2024-02-14T03:44:23;11.20;91.00
40257;DHT22;25977;45.462;9.210;2024-02-14T03:46:49;11.20;90.80
40257;DHT22;25977;45.462;9.210;2024-02-14T03:49:15;11.20;90.90
40257;DHT22;25977;45.462;9.210;2024-02-14T03:51:41;11.20;91.10
40257;DHT22;25977;45.462;9.210;2024-02-14T03:54:07;11.20;91.20
40257;DHT22;25977;45.462;9.210;2024-02-14T03:56:32;11.20;91.30
40257;DHT22;25977;45.462;9.210;2024-02-14T03:59:01;11.20;91.40
40257;DHT22;25977;45.462;9.210;2024-02-14T04:01:28;11.20;91.30
40257;DHT22;25977;45.462;9.210;2024-02-14T04:03:54;11.10;91.10
40257;DHT22;25977;45.462;9.210;2024-02-14T04:06:20;11.10;91.10
40257;DHT22;25977;45.462;9.210;2024-02-14T04:08:46;11.10;91.20
40257;DHT22;25977;45.462;9.210;2024-02-14T04:11:11;11.20;91.50
40257;DHT22;25977;45.462;9.210;2024-02-14T04:13:39;11.10;91.70
40257;DHT22;25977;45.462;9.210;2024-02-14T04:16:05;11.10;91.20
40257;DHT22;25977;45.462;9.210;2024-02-14T04:18:31;11.10;91.00
40257;DHT22;25977;45.462;9.210;2024-02-14T04:20:57;11.10;91.10
40257;DHT22;25977;45.462;9.210;2024-02-14T04:23:22;11.10;91.30
40257;DHT22;25977;45.462;9.210;2024-02-14T04:25:50;11.10;91.50
40257;DHT22;25977;45.462;9.210;2024-02-14T04:28:15;11.10;91.60
40257;DHT22;25977;45.462;9.210;2024-02-14T04:30:41;11.10;91.30
40257;DHT22;25977;45.462;9.210;2024-02-14T04:33:07;11.10;91.40
40257;DHT22;25977;45.462;9.210;2024-02-14T04:35:34;11.10;91.30
40257;DHT22;25977;45.462;9.210;2024-02-14T04:37:59;11.10;91.30
40257;DHT22;25977;45.462;9.210;2024-02-14T04:40:26;11.10;91.50
40257;DHT22;25977;45.462;9.210;2024-02-14T04:42:52;11.10;91.50
40257;DHT22;25977;45.462;9.210;2024-02-14T04:45:18;11.10;91.50
40257;DHT22;25977;45.462;9.210;2024-02-14T04:47:44;11.10;91.40
40257;DHT22;25977;45.462;9.210;2024-02-14T04:50:10;11.00;91.50
40257;DHT22;25977;45.462;9.210;2024-02-14T04:52:36;11.10;91.60
40257;DHT22;25977;45.462;9.210;2024-02-14T04:55:02;11.10;91.70
40257;DHT22;25977;45.462;9.210;2024-02-14T04:57:29;11.00;91.60
40257;DHT22;25977;45.462;9.210;2024-02-14T04:59:55;11.00;91.60
40257;DHT22;25977;45.462;9.210;2024-02-14T05:02:23;11.00;91.70
40257;DHT22;25977;45.462;9.210;2024-02-14T05:04:48;11.00;91.70
40257;DHT22;25977;45.462;9.210;2024-02-14T05:07:14;11.00;91.70
40257;DHT22;25977;45.462;9.210;2024-02-14T05:09:40;11.00;91.70
40257;DHT22;25977;45.462;9.210;2024-02-14T05:12:06;10.90;91.80
40257;DHT22;25977;45.462;9.210;2024-02-14T05:14:38;11.00;91.80
40257;DHT22;25977;45.462;9.210;2024-02-14T05:17:03;11.00;92.10
40257;DHT22;25977;45.462;9.210;2024-02-14T05:19:30;11.00;92.20
40257;DHT22;25977;45.462;9.210;2024-02-14T05:21:56;10.90;92.00
40257;DHT22;25977;45.462;9.210;2024-02-14T05:24:21;10.90;91.90
40257;DHT22;25977;45.462;9.210;2024-02-14T05:26:47;10.90;91.90
40257;DHT22;25977;45.462;9.210;2024-02-14T05:29:12;10.90;91.90
40257;DHT22;25977;45.462;9.210;2024-02-14T05:31:46;10.90;91.90
40257;DHT22;25977;45.462;9.210;2024-02-14T05:34:13;10.90;91.90
40257;DHT22;25977;45.462;9.210;2024-02-14T05:36:39;10.90;91.90
40257;DHT22;25977;45.462;9.210;2024-02-14T05:39:04;10.90;92.00
40257;DHT22;25977;45.462;9.210;2024-02-14T05:41:31;10.90;92.10
40257;DHT22;25977;45.462;9.210;2024-02-14T05:43:58;10.90;92.00
40257;DHT22;25977;45.462;9.210;2024-02-14T05:46:24;10.90;92.10
40257;DHT22;25977;45.462;9.210;2024-02-14T05:48:50;10.80;92.20
40257;DHT22;25977;45.462;9.210;2024-02-14T05:51:18;10.80;92.30
40257;DHT22;25977;45.462;9.210;2024-02-14T05:53:44;10.80;92.30
40257;DHT22;25977;45.462;9.210;2024-02-14T05:56:09;10.80;92.40
40257;DHT22;25977;45.462;9.210;2024-02-14T05:58:35;10.80;92.50
40257;DHT22;25977;45.462;9.210;2024-02-14T06:01:01;10.80;92.50
40257;DHT22;25977;45.462;9.210;2024-02-14T06:03:27;10.80;92.50
40257;DHT22;25977;45.462;9.210;2024-02-14T06:05:53;10.80;92.60
40257;DHT22;25977;45.462;9.210;2024-02-14T06:08:19;10.70;92.30
40257;DHT22;25977;45.462;9.210;2024-02-14T06:10:44;10.70;91.90
40257;DHT22;25977;45.462;9.210;2024-02-14T06:13:10;10.70;91.70
40257;DHT22;25977;45.462;9.210;2024-02-14T06:15:36;10.70;91.90
40257;DHT22;25977;45.462;9.210;2024-02-14T06:18:02;10.70;91.90
40257;DHT22;25977;45.462;9.210;2024-02-14T06:20:27;10.70;91.50
40257;DHT22;25977;45.462;9.210;2024-02-14T06:22:53;10.70;91.50
40257;DHT22;25977;45.462;9.210;2024-02-14T06:25:20;10.70;91.60
40257;DHT22;25977;45.462;9.210;2024-02-14T06:27:46;10.70;91.60
40257;DHT22;25977;45.462;9.210;2024-02-14T06:30:12;10.70;91.60
40257;DHT22;25977;45.462;9.210;2024-02-14T06:32:38;10.70;91.70
40257;DHT22;25977;45.462;9.210;2024-02-14T06:35:03;10.70;91.70
40257;DHT22;25977;45.462;9.210;2024-02-14T06:37:29;10.70;91.80
40257;DHT22;25977;45.462;9.210;2024-02-14T06:39:55;10.70;91.60
40257;DHT22;25977;45.462;9.210;2024-02-14T06:42:20;10.70;91.50
40257;DHT22;25977;45.462;9.210;2024-02-14T06:44:46;10.70;91.50
40257;DHT22;25977;45.462;9.210;2024-02-14T06:47:13;10.70;91.60
40257;DHT22;25977;45.462;9.210;2024-02-14T06:49:39;10.70;91.40
40257;DHT22;25977;45.462;9.210;2024-02-14T06:52:05;10.70;91.40
40257;DHT22;25977;45.462;9.210;2024-02-14T06:54:30;10.70;91.60
40257;DHT22;25977;45.462;9.210;2024-02-14T06:56:56;10.70;91.60
40257;DHT22;25977;45.462;9.210;2024-02-14T06:59:22;10.70;91.40
40257;DHT22;25977;45.462;9.210;2024-02-14T07:01:47;10.70;91.10
40257;DHT22;25977;45.462;9.210;2024-02-14T07:04:13;10.70;91.10
40257;DHT22;25977;45.462;9.210;2024-02-14T07:06:39;10.80;91.30
40257;DHT22;25977;45.462;9.210;2024-02-14T07:09:04;10.70;91.70
40257;DHT22;25977;45.462;9.210;2024-02-14T07:11:30;10.80;92.00
40257;DHT22;25977;45.462;9.210;2024-02-14T07:13:56;10.80;92.10
40257;DHT22;25977;45.462;9.210;2024-02-14T07:16:21;10.80;92.20
40257;DHT22;25977;45.462;9.210;2024-02-14T07:18:47;10.90;92.40
40257;DHT22;25977;45.462;9.210;2024-02-14T07:21:13;10.90;92.40
40257;DHT22;25977;45.462;9.210;2024-02-14T07:23:38;10.90;92.50
40257;DHT22;25977;45.462;9.210;2024-02-14T07:26:04;10.90;92.40
40257;DHT22;25977;45.462;9.210;2024-02-14T07:28:30;10.90;92.40
40257;DHT22;25977;45.462;9.210;2024-02-14T07:30:57;10.90;92.40
40257;DHT22;25977;45.462;9.210;2024-02-14T07:33:23;11.00;92.30
40257;DHT22;25977;45.462;9.210;2024-02-14T07:35:49;11.00;92.10
40257;DHT22;25977;45.462;9.210;2024-02-14T07:38:15;11.00;92.20
40257;DHT22;25977;45.462;9.210;2024-02-14T07:40:42;11.10;92.30
40257;DHT22;25977;45.462;9.210;2024-02-14T07:43:08;11.10;92.30
40257;DHT22;25977;45.462;9.210;2024-02-14T07:45:33;11.10;92.30
40257;DHT22;25977;45.462;9.210;2024-02-14T07:47:59;11.10;92.30
40257;DHT22;25977;45.462;9.210;2024-02-14T07:50:25;11.20;92.40
40257;DHT22;25977;45.462;9.210;2024-02-14T07:52:50;11.10;92.50
40257;DHT22;25977;45.462;9.210;2024-02-14T07:55:16;11.20;92.30
40257;DHT22;25977;45.462;9.210;2024-02-14T07:57:42;11.20;92.20
40257;DHT22;25977;45.462;9.210;2024-02-14T08:00:08;11.20;91.60
40257;DHT22;25977;45.462;9.210;2024-02-14T08:02:35;11.20;90.40
40257;DHT22;25977;45.462;9.210;2024-02-14T08:05:01;11.30;90.40
40257;DHT22;25977;45.462;9.210;2024-02-14T08:07:27;11.30;90.20
40257;DHT22;25977;45.462;9.210;2024-02-14T08:09:54;11.30;90.20
40257;DHT22;25977;45.462;9.210;2024-02-14T08:12:20;11.50;90.30
40257;DHT22;25977;45.462;9.210;2024-02-14T08:14:46;11.50;90.20
40257;DHT22;25977;45.462;9.210;2024-02-14T08:17:13;11.60;89.90
40257;DHT22;25977;45.462;9.210;2024-02-14T08:19:39;11.70;89.70
40257;DHT22;25977;45.462;9.210;2024-02-14T08:22:05;11.80;89.60
40257;DHT22;25977;45.462;9.210;2024-02-14T08:24:31;11.80;89.40
40257;DHT22;25977;45.462;9.210;2024-02-14T08:26:57;11.90;88.90
40257;DHT22;25977;45.462;9.210;2024-02-14T08:29:23;12.00;89.00
40257;DHT22;25977;45.462;9.210;2024-02-14T08:31:49;12.10;89.10
40257;DHT22;25977;45.462;9.210;2024-02-14T08:34:15;12.30;89.10
40257;DHT22;25977;45.462;9.210;2024-02-14T08:36:44;12.30;88.00
40257;DHT22;25977;45.462;9.210;2024-02-14T08:39:10;12.50;88.10
40257;DHT22;25977;45.462;9.210;2024-02-14T08:41:36;12.60;87.80
40257;DHT22;25977;45.462;9.210;2024-02-14T08:44:02;12.70;87.00
40257;DHT22;25977;45.462;9.210;2024-02-14T08:46:29;12.80;87.10
40257;DHT22;25977;45.462;9.210;2024-02-14T08:48:55;12.90;87.10
40257;DHT22;25977;45.462;9.210;2024-02-14T08:51:21;13.10;87.20
40257;DHT22;25977;45.462;9.210;2024-02-14T08:53:48;13.10;84.70
40257;DHT22;25977;45.462;9.210;2024-02-14T08:56:14;13.20;85.20
40257;DHT22;25977;45.462;9.210;2024-02-14T08:58:40;13.30;84.70
40257;DHT22;25977;45.462;9.210;2024-02-14T09:01:05;13.40;83.80
40257;DHT22;25977;45.462;9.210;2024-02-14T09:03:32;13.40;83.00
40257;DHT22;25977;45.462;9.210;2024-02-14T09:05:58;13.50;82.30
40257;DHT22;25977;45.462;9.210;2024-02-14T09:08:24;13.60;82.00
40257;DHT22;25977;45.462;9.210;2024-02-14T09:10:52;13.70;81.90
40257;DHT22;25977;45.462;9.210;2024-02-14T09:13:18;13.70;82.60
40257;DHT22;25977;45.462;9.210;2024-02-14T09:15:44;13.90;82.50
40257;DHT22;25977;45.462;9.210;2024-02-14T09:18:10;14.00;82.80
40257;DHT22;25977;45.462;9.210;2024-02-14T09:20:35;14.10;82.70
40257;DHT22;25977;45.462;9.210;2024-02-14T09:23:03;14.30;82.60
40257;DHT22;25977;45.462;9.210;2024-02-14T09:25:29;14.40;82.90
40257;DHT22;25977;45.462;9.210;2024-02-14T09:27:54;14.50;82.40
40257;DHT22;25977;45.462;9.210;2024-02-14T09:30:20;14.60;82.00
40257;DHT22;25977;45.462;9.210;2024-02-14T09:32:46;14.70;82.00
40257;DHT22;25977;45.462;9.210;2024-02-14T09:35:13;14.70;80.80
40257;DHT22;25977;45.462;9.210;2024-02-14T09:37:39;14.80;81.30
40257;DHT22;25977;45.462;9.210;2024-02-14T09:40:06;14.80;81.40
40257;DHT22;25977;45.462;9.210;2024-02-14T09:42:41;15.00;81.20
40257;DHT22;25977;45.462;9.210;2024-02-14T09:45:09;15.10;81.00
40257;DHT22;25977;45.462;9.210;2024-02-14T09:47:35;15.10;80.50
40257;DHT22;25977;45.462;9.210;2024-02-14T09:50:02;15.20;79.30
40257;DHT22;25977;45.462;9.210;2024-02-14T09:52:33;15.20;78.40
40257;DHT22;25977;45.462;9.210;2024-02-14T09:54:58;15.30;78.30
40257;DHT22;25977;45.462;9.210;2024-02-14T09:57:25;15.10;77.60
40257;DHT22;25977;45.462;9.210;2024-02-14T09:59:53;15.10;78.60
40257;DHT22;25977;45.462;9.210;2024-02-14T10:02:19;15.10;78.70
40257;DHT22;25977;45.462;9.210;2024-02-14T10:04:45;15.10;78.70
40257;DHT22;25977;45.462;9.210;2024-02-14T10:07:11;15.10;79.40
40257;DHT22;25977;45.462;9.210;2024-02-14T10:09:41;15.20;79.70
40257;DHT22;25977;45.462;9.210;2024-02-14T10:12:08;15.30;79.90
40257;DHT22;25977;45.462;9.210;2024-02-14T10:14:37;15.40;79.00
40257;DHT22;25977;45.462;9.210;2024-02-14T10:17:04;15.50;78.80
40257;DHT22;25977;45.462;9.210;2024-02-14T10:19:30;15.50;79.70
40257;DHT22;25977;45.462;9.210;2024-02-14T10:22:00;15.50;79.10
40257;DHT22;25977;45.462;9.210;2024-02-14T10:24:28;15.60;79.00
40257;DHT22;25977;45.462;9.210;2024-02-14T10:26:58;15.60;78.70
40257;DHT22;25977;45.462;9.210;2024-02-14T10:29:25;15.70;79.50
40257;DHT22;25977;45.462;9.210;2024-02-14T10:31:52;15.70;80.00
40257;DHT22;25977;45.462;9.210;2024-02-14T10:34:18;15.80;80.10
40257;DHT22;25977;45.462;9.210;2024-02-14T10:36:49;15.80;80.00
40257;DHT22;25977;45.462;9.210;2024-02-14T10:39:16;15.80;79.90
40257;DHT22;25977;45.462;9.210;2024-02-14T10:41:42;15.80;79.20
40257;DHT22;25977;45.462;9.210;2024-02-14T10:44:09;15.90;79.10
40257;DHT22;25977;45.462;9.210;2024-02-14T10:46:37;15.90;79.00
40257;DHT22;25977;45.462;9.210;2024-02-14T10:49:07;15.90;78.60
40257;DHT22;25977;45.462;9.210;2024-02-14T10:51:38;15.90;78.10
40257;DHT22;25977;45.462;9.210;2024-02-14T10:54:07;15.80;77.60
40257;DHT22;25977;45.462;9.210;2024-02-14T10:56:39;15.80;77.80
40257;DHT22;25977;45.462;9.210;2024-02-14T10:59:07;15.90;76.90
40257;DHT22;25977;45.462;9.210;2024-02-14T11:01:33;15.80;77.00
40257;DHT22;25977;45.462;9.210;2024-02-14T11:04:01;15.90;77.20
40257;DHT22;25977;45.462;9.210;2024-02-14T11:06:27;15.90;77.50
40257;DHT22;25977;45.462;9.210;2024-02-14T11:09:04;16.00;77.60
40257;DHT22;25977;45.462;9.210;2024-02-14T11:11:36;15.80;77.50
40257;DHT22;25977;45.462;9.210;2024-02-14T11:14:02;15.80;78.30
40257;DHT22;25977;45.462;9.210;2024-02-14T11:16:31;15.90;78.50
40257;DHT22;25977;45.462;9.210;2024-02-14T11:19:10;15.90;78.50
40257;DHT22;25977;45.462;9.210;2024-02-14T11:21:39;15.90;78.80
40257;DHT22;25977;45.462;9.210;2024-02-14T11:24:07;15.90;78.60
40257;DHT22;25977;45.462;9.210;2024-02-14T11:26:46;16.00;78.60
40257;DHT22;25977;45.462;9.210;2024-02-14T11:29:16;16.00;78.10
40257;DHT22;25977;45.462;9.210;2024-02-14T11:31:43;16.00;78.20
40257;DHT22;25977;45.462;9.210;2024-02-14T11:34:11;16.00;77.70
40257;DHT22;25977;45.462;9.210;2024-02-14T11:36:39;16.00;77.30
40257;DHT22;25977;45.462;9.210;2024-02-14T11:39:06;16.00;77.50
40257;DHT22;25977;45.462;9.210;2024-02-14T11:41:33;16.00;77.60
40257;DHT22;25977;45.462;9.210;2024-02-14T11:44:06;16.10;77.90
40257;DHT22;25977;45.462;9.210;2024-02-14T11:46:33;16.00;77.90
40257;DHT22;25977;45.462;9.210;2024-02-14T11:49:01;16.00;78.20
40257;DHT22;25977;45.462;9.210;2024-02-14T11:51:28;16.00;78.10
40257;DHT22;25977;45.462;9.210;2024-02-14T11:53:56;16.10;77.70
40257;DHT22;25977;45.462;9.210;2024-02-14T11:56:23;16.00;77.50
40257;DHT22;25977;45.462;9.210;2024-02-14T11:58:51;16.10;77.40
40257;DHT22;25977;45.462;9.210;2024-02-14T12:01:18;16.10;78.10
40257;DHT22;25977;45.462;9.210;2024-02-14T12:03:44;15.90;78.40
40257;DHT22;25977;45.462;9.210;2024-02-14T12:06:10;15.90;78.20
40257;DHT22;25977;45.462;9.210;2024-02-14T12:08:37;15.80;78.70
40257;DHT22;25977;45.462;9.210;2024-02-14T12:11:03;15.70;79.40
40257;DHT22;25977;45.462;9.210;2024-02-14T12:13:30;15.80;79.40
40257;DHT22;25977;45.462;9.210;2024-02-14T12:15:58;15.70;79.50
40257;DHT22;25977;45.462;9.210;2024-02-14T12:18:23;15.80;79.30
40257;DHT22;25977;45.462;9.210;2024-02-14T12:20:49;16.00;80.00
40257;DHT22;25977;45.462;9.210;2024-02-14T12:23:18;16.10;79.40
40257;DHT22;25977;45.462;9.210;2024-02-14T12:25:45;16.10;79.00
40257;DHT22;25977;45.462;9.210;2024-02-14T12:28:19;16.20;79.20
40257;DHT22;25977;45.462;9.210;2024-02-14T12:30:46;16.20;79.40
40257;DHT22;25977;45.462;9.210;2024-02-14T12:33:13;16.20;79.60
40257;DHT22;25977;45.462;9.210;2024-02-14T12:35:47;16.30;79.00
40257;DHT22;25977;45.462;9.210;2024-02-14T12:38:14;16.30;79.00
40257;DHT22;25977;45.462;9.210;2024-02-14T12:40:41;16.30;79.10
40257;DHT22;25977;45.462;9.210;2024-02-14T12:43:11;16.30;78.90
40257;DHT22;25977;45.462;9.210;2024-02-14T12:45:37;16.40;79.30
40257;DHT22;25977;45.462;9.210;2024-02-14T12:48:04;16.40;79.30
40257;DHT22;25977;45.462;9.210;2024-02-14T12:50:33;16.40;79.00
40257;DHT22;25977;45.462;9.210;2024-02-14T12:53:00;16.50;79.50
40257;DHT22;25977;45.462;9.210;2024-02-14T12:55:27;16.50;79.60
40257;DHT22;25977;45.462;9.210;2024-02-14T12:57:54;16.50;80.10
40257;DHT22;25977;45.462;9.210;2024-02-14T13:00:21;16.50;80.00
40257;DHT22;25977;45.462;9.210;2024-02-14T13:02:48;16.50;79.90
40257;DHT22;25977;45.462;9.210;2024-02-14T13:05:14;16.60;80.20
40257;DHT22;25977;45.462;9.210;2024-02-14T13:07:41;16.50;79.20
40257;DHT22;25977;45.462;9.210;2024-02-14T13:10:07;16.60;79.30
40257;DHT22;25977;45.462;9.210;2024-02-14T13:12:39;16.60;79.40
40257;DHT22;25977;45.462;9.210;2024-02-14T13:15:06;16.60;79.40
40257;DHT22;25977;45.462;9.210;2024-02-14T13:17:32;16.50;79.50
40257;DHT22;25977;45.462;9.210;2024-02-14T13:19:57;16.60;79.20
40257;DHT22;25977;45.462;9.210;2024-02-14T13:22:26;16.60;78.60
40257;DHT22;25977;45.462;9.210;2024-02-14T13:24:51;16.70;79.00
40257;DHT22;25977;45.462;9.210;2024-02-14T13:27:17;16.70;78.70
40257;DHT22;25977;45.462;9.210;2024-02-14T13:29:43;16.80;78.90
40257;DHT22;25977;45.462;9.210;2024-02-14T13:32:09;16.90;79.00
40257;DHT22;25977;45.462;9.210;2024-02-14T13:34:34;16.90;79.30
40257;DHT22;25977;45.462;9.210;2024-02-14T13:37:00;16.80;79.20
40257;DHT22;25977;45.462;9.210;2024-02-14T13:39:27;16.90;79.30
40257;DHT22;25977;45.462;9.210;2024-02-14T13:41:53;16.90;79.20
40257;DHT22;25977;45.462;9.210;2024-02-14T13:44:20;17.00;79.20
40257;DHT22;25977;45.462;9.210;2024-02-14T13:46:46;17.00;78.60
40257;DHT22;25977;45.462;9.210;2024-02-14T13:49:12;17.00;77.80
40257;DHT22;25977;45.462;9.210;2024-02-14T13:51:41;17.10;76.70
40257;DHT22;25977;45.462;9.210;2024-02-14T13:54:07;17.10;77.20
40257;DHT22;25977;45.462;9.210;2024-02-14T13:56:34;17.00;75.70
40257;DHT22;25977;45.462;9.210;2024-02-14T13:59:00;17.00;76.10
40257;DHT22;25977;45.462;9.210;2024-02-14T14:01:26;17.00;75.80
40257;DHT22;25977;45.462;9.210;2024-02-14T14:03:52;16.90;75.50
40257;DHT22;25977;45.462;9.210;2024-02-14T14:06:20;16.90;75.70
40257;DHT22;25977;45.462;9.210;2024-02-14T14:08:49;16.90;75.60
40257;DHT22;25977;45.462;9.210;2024-02-14T14:11:15;16.80;74.80
40257;DHT22;25977;45.462;9.210;2024-02-14T14:13:41;16.80;75.20
40257;DHT22;25977;45.462;9.210;2024-02-14T14:16:07;16.70;75.50
40257;DHT22;25977;45.462;9.210;2024-02-14T14:18:32;16.70;75.70
40257;DHT22;25977;45.462;9.210;2024-02-14T14:20:58;16.70;75.70
40257;DHT22;25977;45.462;9.210;2024-02-14T14:23:24;16.70;75.60
40257;DHT22;25977;45.462;9.210;2024-02-14T14:25:49;16.70;75.60
40257;DHT22;25977;45.462;9.210;2024-02-14T14:28:15;16.60;75.30
40257;DHT22;25977;45.462;9.210;2024-02-14T14:30:43;16.50;75.00
40257;DHT22;25977;45.462;9.210;2024-02-14T14:33:09;16.50;75.50
40257;DHT22;25977;45.462;9.210;2024-02-14T14:35:35;16.20;74.80
40257;DHT22;25977;45.462;9.210;2024-02-14T14:38:02;16.20;75.60
40257;DHT22;25977;45.462;9.210;2024-02-14T14:40:32;16.30;75.80
40257;DHT22;25977;45.462;9.210;2024-02-14T14:42:58;16.30;76.50
40257;DHT22;25977;45.462;9.210;2024-02-14T14:45:23;16.40;77.20
40257;DHT22;25977;45.462;9.210;2024-02-14T14:47:49;16.40;76.80
40257;DHT22;25977;45.462;9.210;2024-02-14T14:50:15;16.40;76.70
40257;DHT22;25977;45.462;9.210;2024-02-14T14:52:45;16.30;75.70
40257;DHT22;25977;45.462;9.210;2024-02-14T14:55:11;16.30;74.80
40257;DHT22;25977;45.462;9.210;2024-02-14T14:57:37;16.30;74.80
40257;DHT22;25977;45.462;9.210;2024-02-14T15:00:12;16.30;75.20
40257;DHT22;25977;45.462;9.210;2024-02-14T15:02:42;16.30;75.90
40257;DHT22;25977;45.462;9.210;2024-02-14T15:05:12;16.30;76.60
40257;DHT22;25977;45.462;9.210;2024-02-14T15:07:41;16.10;76.30
40257;DHT22;25977;45.462;9.210;2024-02-14T15:10:07;16.10;77.00
40257;DHT22;25977;45.462;9.210;2024-02-14T15:12:36;16.10;77.40
40257;DHT22;25977;45.462;9.210;2024-02-14T15:15:03;16.10;77.70
40257;DHT22;25977;45.462;9.210;2024-02-14T15:17:29;16.20;78.30
40257;DHT22;25977;45.462;9.210;2024-02-14T15:19:55;16.20;78.50
40257;DHT22;25977;45.462;9.210;2024-02-14T15:22:21;16.20;79.40
40257;DHT22;25977;45.462;9.210;2024-02-14T15:24:47;16.20;81.40
40257;DHT22;25977;45.462;9.210;2024-02-14T15:27:12;16.20;82.30